createdAt,value
2022-10-06T00:02:19.742Z,10.4
2022-10-06T00:08:03.430Z,8
2022-10-06T00:13:47.011Z,8.4
2022-10-06T00:19:30.282Z,7.1
2022-10-06T00:25:14.670Z,7.8
2022-10-06T00:30:58.335Z,8.8
2022-10-06T00:36:41.517Z,9.8
2022-10-06T00:42:29.516Z,8.3
2022-10-06T00:48:16.299Z,6.4
2022-10-06T00:53:59.710Z,10.2
2022-10-06T00:59:43.494Z,7.8
2022-10-06T01:05:29.605Z,6.7
2022-10-06T01:11:13.182Z,8.4
2022-10-06T01:16:58.770Z,8.3
2022-10-06T01:22:43.748Z,7.6
2022-10-06T01:28:28.508Z,8.3
2022-10-06T01:34:13.026Z,8.3
2022-10-06T01:39:57.315Z,7.4
2022-10-06T01:45:40.836Z,4.9
2022-10-06T01:51:24.133Z,7.5
2022-10-06T01:57:07.417Z,5.8
2022-10-06T02:02:50.522Z,7.2
2022-10-06T02:08:34.560Z,7
2022-10-06T02:14:17.730Z,6
2022-10-06T02:20:01.773Z,5.9
2022-10-06T02:25:44.867Z,4.7
2022-10-06T02:31:28.540Z,6.4
2022-10-06T02:37:11.878Z,7.7
2022-10-06T02:42:55.022Z,8.6
2022-10-06T02:48:38.103Z,7.8
2022-10-06T02:54:22.131Z,7.3
2022-10-06T03:00:05.938Z,6.6
2022-10-06T03:05:51.581Z,6.8
2022-10-06T03:11:35.781Z,4.8
2022-10-06T03:17:19.060Z,6.2
2022-10-06T03:23:02.330Z,7.7
2022-10-06T03:28:46.219Z,7.6
2022-10-06T03:34:29.754Z,5.3
2022-10-06T03:40:13.392Z,7.7
2022-10-06T03:46:01.935Z,7.8
2022-10-06T03:51:45.220Z,9
2022-10-06T03:57:28.311Z,6.6
2022-10-06T04:03:11.421Z,5.9
2022-10-06T04:08:55.487Z,6.6
2022-10-06T04:14:38.818Z,6.7
2022-10-06T04:20:22.100Z,6.6
2022-10-06T04:26:06.900Z,9
2022-10-06T04:31:50.503Z,6.2
2022-10-06T04:37:33.902Z,6.2
2022-10-06T04:43:17.038Z,7.7
2022-10-06T04:49:00.115Z,8.3
2022-10-06T04:54:43.273Z,8.3
2022-10-06T05:00:26.727Z,5.9
2022-10-06T05:06:12.152Z,6.7
2022-10-06T05:12:01.186Z,6.1
2022-10-06T05:17:44.530Z,4.6
2022-10-06T05:23:28.318Z,5.9
2022-10-06T05:29:11.619Z,4.9
2022-10-06T05:34:54.931Z,4.9
2022-10-06T05:40:38.232Z,7.4
2022-10-06T05:46:22.470Z,7.5
2022-10-06T05:52:05.901Z,4.5
2022-10-06T05:57:49.303Z,6.2
2022-10-06T06:03:32.599Z,7.4
2022-10-06T06:09:16.584Z,8.2
2022-10-06T06:14:59.853Z,7.8
2022-10-06T06:20:42.967Z,7.3
2022-10-06T06:26:27.147Z,9.3
2022-10-06T06:32:10.096Z,6
2022-10-06T06:37:53.310Z,4.2
2022-10-06T06:43:36.606Z,7.7
2022-10-06T06:49:19.853Z,5.7
2022-10-06T06:55:03.271Z,7.8
2022-10-06T07:00:46.475Z,7.7
2022-10-06T07:06:31.233Z,5.9
2022-10-06T07:12:14.374Z,6.4
2022-10-06T07:17:57.425Z,7.5
2022-10-06T07:23:40.736Z,5.3
2022-10-06T07:29:23.963Z,8.8
2022-10-06T07:35:07.665Z,8.3
2022-10-06T07:41:25.920Z,7.6
2022-10-06T07:46:58.774Z,8.8
2022-10-06T07:52:42.258Z,10.3
2022-10-06T07:58:25.882Z,7.2
2022-10-06T08:04:09.082Z,5.9
2022-10-06T08:09:52.118Z,9.9
2022-10-06T08:15:35.640Z,8.7
2022-10-06T08:21:19.717Z,7.9
2022-10-06T08:27:02.899Z,8
2022-10-06T08:32:46.090Z,8.1
2022-10-06T08:38:29.195Z,9
2022-10-06T08:44:21.954Z,9.8
2022-10-06T08:50:05.844Z,10
2022-10-06T08:55:50.599Z,6.2
2022-10-06T09:01:39.273Z,7.9
2022-10-06T09:07:27.272Z,8.1
2022-10-06T09:13:16.340Z,7.4
2022-10-06T09:19:10.990Z,6.6
2022-10-06T09:24:56.933Z,9
2022-10-06T09:30:40.467Z,6.8
2022-10-06T09:36:24.739Z,5.2
2022-10-06T09:42:13.398Z,6.8
2022-10-06T09:47:56.540Z,5.3
2022-10-06T09:53:40.549Z,4.8
2022-10-06T09:59:27.018Z,6.7
2022-10-06T10:05:17.211Z,7.3
2022-10-06T10:11:11.049Z,6.9
2022-10-06T10:16:56.071Z,6.3
2022-10-06T10:22:41.141Z,6.4
2022-10-06T10:28:33.083Z,8.2
2022-10-06T10:34:26.896Z,6.8
2022-10-06T10:40:14.708Z,10
2022-10-06T10:46:00.088Z,6.6
2022-10-06T10:51:49.463Z,6.6
2022-10-06T10:57:36.790Z,6.9
2022-10-06T11:03:20.166Z,6.2
2022-10-06T11:09:06.365Z,9.1
2022-10-06T11:14:53.335Z,8.7
2022-10-06T11:20:48.932Z,6.7
2022-10-06T11:26:39.875Z,7.3
2022-10-06T11:32:26.895Z,7.6
2022-10-06T11:38:15.175Z,6.9
2022-10-06T11:44:01.334Z,7
2022-10-06T11:50:01.557Z,7
2022-10-06T11:55:44.939Z,6.2
2022-10-06T12:01:39.436Z,6.2
2022-10-06T12:07:22.721Z,8.5
2022-10-06T12:14:12.297Z,6.6
2022-10-06T12:19:22.743Z,5.3
2022-10-06T12:25:08.264Z,6.8
2022-10-06T12:30:57.836Z,6.7
2022-10-06T12:36:46.772Z,6.2
2022-10-06T12:42:32.602Z,6.9
2022-10-06T12:48:20.246Z,5.1
2022-10-06T12:54:06.530Z,4.5
2022-10-06T12:59:50.095Z,6.3
2022-10-06T13:05:34.395Z,3.4
2022-10-06T13:11:21.155Z,4.3
2022-10-06T13:17:06.253Z,4.3
2022-10-06T13:22:54.639Z,4.1
2022-10-06T13:28:50.771Z,5.8
2022-10-06T13:34:35.543Z,4.4
2022-10-06T13:40:45.408Z,4.3
2022-10-06T13:46:30.571Z,5.4
2022-10-06T13:52:17.638Z,4.1
2022-10-06T13:58:12.158Z,3.8
2022-10-06T14:04:00.128Z,4.3
2022-10-06T14:09:44.483Z,4.1
2022-10-06T14:15:29.279Z,6
2022-10-06T14:21:27.771Z,5.9
2022-10-06T14:27:11.153Z,6.7
2022-10-06T14:32:54.422Z,9
2022-10-06T14:38:37.594Z,9
2022-10-06T14:44:20.822Z,7.1
2022-10-06T14:50:04.264Z,6
2022-10-06T14:55:47.853Z,7.7
2022-10-06T15:01:31.563Z,7.5
2022-10-06T15:07:14.831Z,7.1
2022-10-06T15:12:58.009Z,7.2
2022-10-06T15:18:45.269Z,8.4
2022-10-06T15:24:28.431Z,7.8
2022-10-06T15:30:12.659Z,9.8
2022-10-06T15:36:02.016Z,9.1
2022-10-06T15:41:45.659Z,8.2
2022-10-06T15:47:32.974Z,10
2022-10-06T15:53:16.331Z,6.5
2022-10-06T15:58:59.631Z,7.9
2022-10-06T16:04:43.219Z,7.1
2022-10-06T16:10:26.421Z,7.9
2022-10-06T16:16:10.003Z,7.1
2022-10-06T16:22:00.803Z,5.5
2022-10-06T16:27:44.138Z,4.9
2022-10-06T16:33:27.245Z,5.6
2022-10-06T16:39:14.727Z,4.4
2022-10-06T16:44:57.975Z,5.6
2022-10-06T16:50:41.094Z,6.9
2022-10-06T16:56:24.960Z,5.5
2022-10-06T17:02:08.010Z,5
2022-10-06T17:07:53.523Z,6.2
2022-10-06T17:13:42.188Z,6.3
2022-10-06T17:19:27.179Z,8.2
2022-10-06T17:25:10.671Z,8.1
2022-10-06T17:30:58.190Z,8.8
2022-10-06T17:36:41.781Z,5.9
2022-10-06T17:42:25.067Z,6.8
2022-10-06T17:48:09.400Z,5.4
2022-10-06T17:53:54.057Z,7.9
2022-10-06T17:59:37.187Z,7.3
2022-10-06T18:05:20.589Z,6.3
2022-10-06T18:11:04.035Z,6.3
2022-10-06T18:16:55.782Z,5.2
2022-10-06T18:22:39.825Z,5.2
2022-10-06T18:28:23.447Z,5.9
2022-10-06T18:40:12.170Z,5.2
2022-10-06T18:45:56.179Z,7
2022-10-06T18:51:40.351Z,6.6
2022-10-06T18:57:29.729Z,8.2
2022-10-06T19:03:12.970Z,8
2022-10-06T19:09:00.129Z,6.3
2022-10-06T19:14:43.356Z,5.9
2022-10-06T19:20:26.541Z,6.6
2022-10-06T19:26:10.550Z,6.6
2022-10-06T19:31:54.998Z,7.5
2022-10-06T19:37:38.271Z,6.6
2022-10-06T19:43:21.692Z,6
2022-10-06T19:49:06.287Z,6.7
2022-10-06T19:54:49.643Z,9.1
2022-10-06T20:00:32.812Z,7.5
2022-10-06T20:06:18.121Z,7.7
2022-10-06T20:12:02.393Z,7.6
2022-10-06T20:17:47.496Z,11.2
2022-10-06T20:23:31.103Z,8
2022-10-06T20:29:15.195Z,12.7
2022-10-06T20:34:58.411Z,10
2022-10-06T20:40:46.073Z,7.8
2022-10-06T20:46:30.913Z,10.6
2022-10-06T20:52:14.314Z,8.8
2022-10-06T20:57:57.551Z,9.8
2022-10-06T21:03:45.693Z,11
2022-10-06T21:09:28.923Z,11.6
2022-10-06T21:15:12.387Z,11.9
2022-10-06T21:21:02.900Z,10.2
2022-10-06T21:26:45.937Z,13.1
2022-10-06T21:32:29.029Z,12.6
2022-10-06T21:38:12.905Z,13.1
2022-10-06T21:43:58.724Z,11.9
2022-10-06T21:49:41.798Z,13.2
2022-10-06T21:55:24.963Z,13
2022-10-06T22:01:09.027Z,15.8
2022-10-06T22:06:52.143Z,12.1
2022-10-06T22:12:35.352Z,15.4
2022-10-06T22:18:18.654Z,14.2
2022-10-06T22:24:02.632Z,14.2
2022-10-06T22:29:45.765Z,13.1
2022-10-06T22:35:28.889Z,12.1
2022-10-06T22:41:12.984Z,10.6
2022-10-06T22:46:56.561Z,10.4
2022-10-06T22:52:41.732Z,14.1
2022-10-06T22:58:24.993Z,11
2022-10-06T23:04:08.173Z,12.4
2022-10-06T23:09:51.449Z,11.4
2022-10-06T23:15:34.689Z,13.4
2022-10-06T23:21:20.198Z,11
2022-10-06T23:27:03.377Z,9.6
2022-10-06T23:32:46.451Z,12.2
2022-10-06T23:38:30.710Z,11.1
2022-10-06T23:44:13.993Z,10.6
2022-10-06T23:49:57.096Z,10.1
2022-10-06T23:55:40.429Z,10.3
